East Marion, NY

6:31 AM EDT on April 21, 2015 (GMT -0400)
Groton-New London | | Change Station
CLOSE
Current Station
Airport
Location: Groton,
Elevation: 10 ft
Nearby Weather Stations

Elev 10 ft 41.33 °N, 72.05 °W | Updated 35 minutes ago

Fog
Fog
51 °F
Feels Like 51 °F
N
4
Wind Variable Wind from SSW

Today
High -- | Low -- °F
--% Chance of Precip.
Yesterday
High -- | Low -- °F
Precip. -- in
6:01 AM 7:35 PM
Waxing Crescent, 9% visible
Pressure 29.56 in
Visibility 1.5 miles
Clouds Overcast 400 ft
Dew Point 51 °F
Humidity 100%
Rainfall 0.16 in
Snow Depth Not available.
UV 0 out of 12
Pollen 4.40 out of 12
Air Quality Not available.
Flu Activity Widespread
METAR KGON 210956Z AUTO 21003KT 1 1/2SM R05/4000V5500FT BR OVC004 11/11 A2956 RMK AO2 CIG 002V007 SLP008 T01060106 $

More Conditions Fewer Conditions

Pressure 29.56 in
Visibility 1.5 miles
Clouds Overcast 400 ft
Dew Point 51 °F
Humidity 100%
Rainfall 0.16 in
Snow Depth Not available.
UV 0 out of 12
Pollen 4.40 out of 12
Air Quality Not available.
Flu Activity Widespread
METAR KGON 210956Z AUTO 21003KT 1 1/2SM R05/4000V5500FT BR OVC004 11/11 A2956 RMK AO2 CIG 002V007 SLP008 T01060106 $

More Conditions Fewer Conditions

10-Day Weather Forecast

Almanac

Astronomy

Apr. 21, 2015 Rise Set
Actual Time
Civil Twilight
Nautical Twilight
Astronomical Twilight
Moon
Length of Visible Light
Length of Day
Tomorrow will be .
, % of the Moon is Illuminated

Today's Extremes

State Highs State Lows

Community

WunderPhotos

Upload Photos

1,815,340 photos uploaded!

WunderBlogs® & News

Nearby

Air Quality

  Air Quality AQ Index Pollutant
Not available.

Snow Depth

Station Depth Elevation

Earthquake Activity

City Distance Mag. Time & Date
Minimum magnitude displayed is 2.5.

Coastal Water Temperatures

Place Temperature

Stations

Nearby Weather Stations

Station Location Temp. Windchill Dew Point Humidity Wind Precip. Elev Updated Type